sensor_id;sensor_type;location;lat;lon;timestamp;pressure;altitude;pressure_sealevel;temperature;humidity
74474;BME280;62922;-6.168;106.796;2023-02-25T00:01:20;101139.25;;;28.28;74.40
74474;BME280;62922;-6.168;106.796;2023-02-25T00:03:46;101135.59;;;28.28;74.46
74474;BME280;62922;-6.168;106.796;2023-02-25T00:06:14;101143.22;;;28.27;74.29
74474;BME280;62922;-6.168;106.796;2023-02-25T00:08:42;101146.00;;;28.27;74.12
74474;BME280;62922;-6.168;106.796;2023-02-25T00:11:08;101138.41;;;28.28;74.25
74474;BME280;62922;-6.168;106.796;2023-02-25T00:13:34;101153.28;;;28.28;74.25
74474;BME280;62922;-6.168;106.796;2023-02-25T00:16:02;101154.44;;;28.27;73.97
74474;BME280;62922;-6.168;106.796;2023-02-25T00:18:28;101167.31;;;28.28;74.18
74474;BME280;62922;-6.168;106.796;2023-02-25T00:20:55;101162.00;;;28.27;74.06
74474;BME280;62922;-6.168;106.796;2023-02-25T00:23:21;101173.22;;;28.27;74.55
74474;BME280;62922;-6.168;106.796;2023-02-25T00:25:47;101178.84;;;28.27;74.04
74474;BME280;62922;-6.168;106.796;2023-02-25T00:28:14;101186.09;;;28.28;74.43
74474;BME280;62922;-6.168;106.796;2023-02-25T00:30:40;101185.28;;;28.27;74.43
74474;BME280;62922;-6.168;106.796;2023-02-25T00:33:07;101192.88;;;28.27;74.86
74474;BME280;62922;-6.168;106.796;2023-02-25T00:35:33;101197.06;;;28.29;74.42
74474;BME280;62922;-6.168;106.796;2023-02-25T00:37:59;101193.72;;;28.27;74.43
74474;BME280;62922;-6.168;106.796;2023-02-25T00:40:25;101210.56;;;28.27;74.52
74474;BME280;62922;-6.168;106.796;2023-02-25T00:42:51;101210.56;;;28.27;74.55
74474;BME280;62922;-6.168;106.796;2023-02-25T00:45:17;101210.25;;;28.29;74.26
74474;BME280;62922;-6.168;106.796;2023-02-25T00:47:43;101220.63;;;28.28;74.19
74474;BME280;62922;-6.168;106.796;2023-02-25T00:50:09;101218.13;;;28.27;74.60
74474;BME280;62922;-6.168;106.796;2023-02-25T00:52:35;101218.97;;;28.27;74.26
74474;BME280;62922;-6.168;106.796;2023-02-25T00:55:03;101214.19;;;28.28;74.33
74474;BME280;62922;-6.168;106.796;2023-02-25T00:57:29;101217.81;;;28.28;74.56
74474;BME280;62922;-6.168;106.796;2023-02-25T00:59:55;101213.06;;;28.29;74.33
74474;BME280;62922;-6.168;106.796;2023-02-25T01:02:21;101213.91;;;28.29;74.32
74474;BME280;62922;-6.168;106.796;2023-02-25T01:04:46;101213.91;;;28.29;74.96
74474;BME280;62922;-6.168;106.796;2023-02-25T01:07:12;101221.47;;;28.29;74.44
74474;BME280;62922;-6.168;106.796;2023-02-25T01:09:38;101220.31;;;28.30;74.22
74474;BME280;62922;-6.168;106.796;2023-02-25T01:12:04;101227.94;;;28.29;74.62
74474;BME280;62922;-6.168;106.796;2023-02-25T01:14:30;101234.66;;;28.28;74.84
74474;BME280;62922;-6.168;106.796;2023-02-25T01:16:56;101229.88;;;28.29;74.77
74474;BME280;62922;-6.168;106.796;2023-02-25T01:19:25;101237.47;;;28.28;74.54
74474;BME280;62922;-6.168;106.796;2023-02-25T01:21:52;101241.13;;;28.29;74.62
74474;BME280;62922;-6.168;106.796;2023-02-25T01:24:20;101245.03;;;28.28;74.49
74474;BME280;62922;-6.168;106.796;2023-02-25T01:26:47;101251.50;;;28.28;74.76
74474;BME280;62922;-6.168;106.796;2023-02-25T01:29:15;101254.31;;;28.28;74.76
74474;BME280;62922;-6.168;106.796;2023-02-25T01:31:42;101252.34;;;28.29;74.92
74474;BME280;62922;-6.168;106.796;2023-02-25T01:34:09;101249.53;;;28.29;75.06
74474;BME280;62922;-6.168;106.796;2023-02-25T01:36:37;101254.31;;;28.28;74.70
74474;BME280;62922;-6.168;106.796;2023-02-25T01:39:03;101260.44;;;28.30;74.77
74474;BME280;62922;-6.168;106.796;2023-02-25T01:41:30;101265.22;;;28.30;74.79
74474;BME280;62922;-6.168;106.796;2023-02-25T01:46:33;101267.22;;;28.29;74.42
74474;BME280;62922;-6.168;106.796;2023-02-25T01:49:00;101255.16;;;28.29;74.57
74474;BME280;62922;-6.168;106.796;2023-02-25T01:51:26;101261.59;;;28.29;74.66
74474;BME280;62922;-6.168;106.796;2023-02-25T01:53:53;101257.97;;;28.29;74.68
74474;BME280;62922;-6.168;106.796;2023-02-25T01:56:21;101255.16;;;28.29;74.96
74474;BME280;62922;-6.168;106.796;2023-02-25T01:58:48;101256.00;;;28.29;74.90
74474;BME280;62922;-6.168;106.796;2023-02-25T02:01:14;101254.00;;;28.30;74.79
74474;BME280;62922;-6.168;106.796;2023-02-25T02:03:41;101244.78;;;28.29;74.97
74474;BME280;62922;-6.168;106.796;2023-02-25T02:06:19;101248.06;;;28.31;74.85
74474;BME280;62922;-6.168;106.796;2023-02-25T02:08:45;101255.38;;;28.32;74.68
74474;BME280;62922;-6.168;106.796;2023-02-25T02:11:12;101246.94;;;28.32;74.43
74474;BME280;62922;-6.168;106.796;2023-02-25T02:13:40;101248.59;;;28.33;74.71
74474;BME280;62922;-6.168;106.796;2023-02-25T02:18:56;101247.47;;;28.34;74.55
74474;BME280;62922;-6.168;106.796;2023-02-25T02:21:36;101246.34;;;28.35;74.31
74474;BME280;62922;-6.168;106.796;2023-02-25T02:32:03;101255.59;;;28.36;74.47
74474;BME280;62922;-6.168;106.796;2023-02-25T02:34:35;101258.94;;;28.38;74.46
74474;BME280;62922;-6.168;106.796;2023-02-25T02:39:39;101253.31;;;28.38;73.79
74474;BME280;62922;-6.168;106.796;2023-02-25T02:42:13;101254.16;;;28.38;74.04
74474;BME280;62922;-6.168;106.796;2023-02-25T02:44:57;101249.66;;;28.37;74.41
74474;BME280;62922;-6.168;106.796;2023-02-25T02:47:28;101255.28;;;28.37;74.40
74474;BME280;62922;-6.168;106.796;2023-02-25T02:49:59;101248.00;;;28.36;74.49
74474;BME280;62922;-6.168;106.796;2023-02-25T02:52:31;101256.13;;;28.38;74.00
74474;BME280;62922;-6.168;106.796;2023-02-25T02:55:00;101244.59;;;28.39;73.97
74474;BME280;62922;-6.168;106.796;2023-02-25T02:57:27;101253.31;;;28.38;74.36
74474;BME280;62922;-6.168;106.796;2023-02-25T02:59:55;101239.28;;;28.38;74.39
74474;BME280;62922;-6.168;106.796;2023-02-25T03:02:24;101241.78;;;28.39;74.19
74474;BME280;62922;-6.168;106.796;2023-02-25T03:04:52;101246.28;;;28.40;73.98
74474;BME280;62922;-6.168;106.796;2023-02-25T03:07:21;101247.41;;;28.39;73.91
74474;BME280;62922;-6.168;106.796;2023-02-25T03:12:13;101254.69;;;28.40;74.34
74474;BME280;62922;-6.168;106.796;2023-02-25T03:14:39;101249.88;;;28.41;73.69
74474;BME280;62922;-6.168;106.796;2023-02-25T03:17:10;101256.34;;;28.41;73.76
74474;BME280;62922;-6.168;106.796;2023-02-25T03:19:38;101265.31;;;28.43;73.87
74474;BME280;62922;-6.168;106.796;2023-02-25T03:22:06;101266.41;;;28.42;73.99
74474;BME280;62922;-6.168;106.796;2023-02-25T03:24:36;101271.22;;;28.42;73.72
74474;BME280;62922;-6.168;106.796;2023-02-25T03:29:38;101278.50;;;28.43;73.13
74474;BME280;62922;-6.168;106.796;2023-02-25T03:32:05;101280.47;;;28.42;73.90
74474;BME280;62922;-6.168;106.796;2023-02-25T03:34:36;101281.00;;;28.44;73.66
74474;BME280;62922;-6.168;106.796;2023-02-25T03:37:05;101276.53;;;28.43;74.12
74474;BME280;62922;-6.168;106.796;2023-02-25T03:39:35;101275.38;;;28.44;73.22
74474;BME280;62922;-6.168;106.796;2023-02-25T03:42:04;101272.88;;;28.43;73.32
74474;BME280;62922;-6.168;106.796;2023-02-25T03:44:32;101280.47;;;28.42;73.77
74474;BME280;62922;-6.168;106.796;2023-02-25T03:47:00;101264.16;;;28.44;73.67
74474;BME280;62922;-6.168;106.796;2023-02-25T03:49:30;101268.09;;;28.43;73.58
74474;BME280;62922;-6.168;106.796;2023-02-25T03:51:57;101269.75;;;28.44;73.41
74474;BME280;62922;-6.168;106.796;2023-02-25T03:54:24;101263.84;;;28.46;73.43
74474;BME280;62922;-6.168;106.796;2023-02-25T03:56:53;101257.41;;;28.45;73.36
74474;BME280;62922;-6.168;106.796;2023-02-25T03:59:21;101257.09;;;28.47;73.64
74474;BME280;62922;-6.168;106.796;2023-02-25T04:01:52;101243.38;;;28.45;73.65
74474;BME280;62922;-6.168;106.796;2023-02-25T04:04:19;101250.63;;;28.46;73.46
74474;BME280;62922;-6.168;106.796;2023-02-25T04:06:44;101246.72;;;28.47;72.83
74474;BME280;62922;-6.168;106.796;2023-02-25T04:09:12;101248.38;;;28.48;73.29
74474;BME280;62922;-6.168;106.796;2023-02-25T04:11:41;101250.06;;;28.49;73.36
74474;BME280;62922;-6.168;106.796;2023-02-25T04:14:07;101245.25;;;28.50;73.06
74474;BME280;62922;-6.168;106.796;2023-02-25T04:16:32;101244.13;;;28.51;73.02
74474;BME280;62922;-6.168;106.796;2023-02-25T04:18:58;101229.81;;;28.52;73.08
74474;BME280;62922;-6.168;106.796;2023-02-25T04:23:52;101236.78;;;28.55;73.10
74474;BME280;62922;-6.168;106.796;2023-02-25T04:26:21;101235.63;;;28.56;73.04
74474;BME280;62922;-6.168;106.796;2023-02-25T04:28:47;101241.78;;;28.58;72.99
74474;BME280;62922;-6.168;106.796;2023-02-25T04:31:13;101242.63;;;28.58;73.13
74474;BME280;62922;-6.168;106.796;2023-02-25T04:33:39;101235.00;;;28.59;72.65
74474;BME280;62922;-6.168;106.796;2023-02-25T04:36:04;101231.91;;;28.60;72.51
74474;BME280;62922;-6.168;106.796;2023-02-25T04:38:30;101227.97;;;28.61;72.88
74474;BME280;62922;-6.168;106.796;2023-02-25T04:40:56;101212.75;;;28.62;73.06
74474;BME280;62922;-6.168;106.796;2023-02-25T04:43:22;101214.44;;;28.63;72.77
74474;BME280;62922;-6.168;106.796;2023-02-25T04:45:48;101210.81;;;28.63;72.59
74474;BME280;62922;-6.168;106.796;2023-02-25T04:48:14;101199.56;;;28.63;72.76
74474;BME280;62922;-6.168;106.796;2023-02-25T04:50:40;101191.16;;;28.63;72.73
74474;BME280;62922;-6.168;106.796;2023-02-25T04:53:06;101185.22;;;28.64;72.62
74474;BME280;62922;-6.168;106.796;2023-02-25T04:55:34;101183.56;;;28.63;72.08
74474;BME280;62922;-6.168;106.796;2023-02-25T04:58:00;101179.59;;;28.64;72.26
74474;BME280;62922;-6.168;106.796;2023-02-25T05:00:26;101169.22;;;28.65;72.21
74474;BME280;62922;-6.168;106.796;2023-02-25T05:02:51;101160.78;;;28.65;72.13
74474;BME280;62922;-6.168;106.796;2023-02-25T05:05:20;101148.44;;;28.66;72.31
74474;BME280;62922;-6.168;106.796;2023-02-25T05:07:46;101153.72;;;28.67;72.15
74474;BME280;62922;-6.168;106.796;2023-02-25T05:10:12;101150.59;;;28.69;72.44
74474;BME280;62922;-6.168;106.796;2023-02-25T05:12:39;101145.84;;;28.69;72.44
74474;BME280;62922;-6.168;106.796;2023-02-25T05:15:05;101141.53;;;28.72;72.47
74474;BME280;62922;-6.168;106.796;2023-02-25T05:17:33;101136.47;;;28.74;72.38
74474;BME280;62922;-6.168;106.796;2023-02-25T05:19:59;101136.13;;;28.75;72.03
74474;BME280;62922;-6.168;106.796;2023-02-25T05:22:25;101134.16;;;28.76;71.96
74474;BME280;62922;-6.168;106.796;2023-02-25T05:24:51;101132.22;;;28.77;72.07
74474;BME280;62922;-6.168;106.796;2023-02-25T05:27:17;101131.03;;;28.77;72.05
74474;BME280;62922;-6.168;106.796;2023-02-25T05:29:42;101128.75;;;28.80;71.75
74474;BME280;62922;-6.168;106.796;2023-02-25T05:32:08;101127.63;;;28.81;71.51
74474;BME280;62922;-6.168;106.796;2023-02-25T05:34:34;101118.91;;;28.82;71.93
74474;BME280;62922;-6.168;106.796;2023-02-25T05:37:00;101121.38;;;28.84;71.60
74474;BME280;62922;-6.168;106.796;2023-02-25T05:39:26;101111.50;;;28.86;71.69
74474;BME280;62922;-6.168;106.796;2023-02-25T05:41:52;101112.31;;;28.87;71.54
74474;BME280;62922;-6.168;106.796;2023-02-25T05:44:19;101099.97;;;28.88;71.71
74474;BME280;62922;-6.168;106.796;2023-02-25T05:46:44;101095.16;;;28.88;71.32
74474;BME280;62922;-6.168;106.796;2023-02-25T05:49:10;101094.03;;;28.89;71.08
74474;BME280;62922;-6.168;106.796;2023-02-25T05:51:36;101088.94;;;28.91;71.20
74474;BME280;62922;-6.168;106.796;2023-02-25T05:54:02;101088.59;;;28.93;71.34
74474;BME280;62922;-6.168;106.796;2023-02-25T05:56:29;101087.44;;;28.94;71.45
74474;BME280;62922;-6.168;106.796;2023-02-25T05:58:55;101089.13;;;28.95;71.04
74474;BME280;62922;-6.168;106.796;2023-02-25T06:01:22;101087.97;;;28.96;71.41
74474;BME280;62922;-6.168;106.796;2023-02-25T06:03:49;101078.41;;;28.97;70.93
74474;BME280;62922;-6.168;106.796;2023-02-25T06:06:17;101074.44;;;28.98;71.16
74474;BME280;62922;-6.168;106.796;2023-02-25T06:08:47;101072.16;;;29.00;70.85
74474;BME280;62922;-6.168;106.796;2023-02-25T06:11:16;101078.63;;;29.00;70.99
74474;BME280;62922;-6.168;106.796;2023-02-25T06:13:42;101072.69;;;29.02;70.83
74474;BME280;62922;-6.168;106.796;2023-02-25T06:16:10;101069.56;;;29.03;70.88
74474;BME280;62922;-6.168;106.796;2023-02-25T06:18:36;101064.78;;;29.04;71.26
74474;BME280;62922;-6.168;106.796;2023-02-25T06:21:06;101062.81;;;29.04;71.23
74474;BME280;62922;-6.168;106.796;2023-02-25T06:23:35;101055.19;;;29.05;71.05
74474;BME280;62922;-6.168;106.796;2023-02-25T06:26:05;101052.38;;;29.05;70.66
74474;BME280;62922;-6.168;106.796;2023-02-25T06:28:32;101056.88;;;29.06;71.12
74474;BME280;62922;-6.168;106.796;2023-02-25T06:30:58;101043.66;;;29.06;70.84
74474;BME280;62922;-6.168;106.796;2023-02-25T06:33:24;101042.50;;;29.07;71.04
74474;BME280;62922;-6.168;106.796;2023-02-25T06:35:52;101039.69;;;29.07;70.76
74474;BME280;62922;-6.168;106.796;2023-02-25T06:38:18;101036.88;;;29.07;70.56
74474;BME280;62922;-6.168;106.796;2023-02-25T06:40:44;101034.91;;;29.08;70.56
74474;BME280;62922;-6.168;106.796;2023-02-25T06:43:10;101039.38;;;29.09;70.62
74474;BME280;62922;-6.168;106.796;2023-02-25T06:45:36;101027.00;;;29.10;70.79
74474;BME280;62922;-6.168;106.796;2023-02-25T06:48:02;101015.75;;;29.10;70.69
74474;BME280;62922;-6.168;106.796;2023-02-25T06:50:28;101014.59;;;29.11;70.54
74474;BME280;62922;-6.168;106.796;2023-02-25T06:52:56;101007.88;;;29.12;70.59
74474;BME280;62922;-6.168;106.796;2023-02-25T06:55:22;101016.31;;;29.12;70.66
74474;BME280;62922;-6.168;106.796;2023-02-25T06:57:47;101005.88;;;29.12;70.59
74474;BME280;62922;-6.168;106.796;2023-02-25T07:00:13;101011.50;;;29.12;70.48
74474;BME280;62922;-6.168;106.796;2023-02-25T07:02:39;100998.28;;;29.13;70.30
74474;BME280;62922;-6.168;106.796;2023-02-25T07:05:07;100997.13;;;29.14;70.56
74474;BME280;62922;-6.168;106.796;2023-02-25T07:07:33;101003.91;;;29.13;70.51
74474;BME280;62922;-6.168;106.796;2023-02-25T07:09:59;101005.56;;;29.14;70.17
74474;BME280;62922;-6.168;106.796;2023-02-25T07:12:28;100998.81;;;29.15;70.47
74474;BME280;62922;-6.168;106.796;2023-02-25T07:14:56;101005.25;;;29.15;70.25
74474;BME280;62922;-6.168;106.796;2023-02-25T07:17:22;100994.81;;;29.16;70.40
74474;BME280;62922;-6.168;106.796;2023-02-25T07:19:48;100995.66;;;29.16;70.29
74474;BME280;62922;-6.168;106.796;2023-02-25T07:22:14;100994.53;;;29.17;70.09
74474;BME280;62922;-6.168;106.796;2023-02-25T07:24:41;100994.53;;;29.17;70.08
74474;BME280;62922;-6.168;106.796;2023-02-25T07:27:12;100991.41;;;29.19;70.24
74474;BME280;62922;-6.168;106.796;2023-02-25T07:29:38;100991.41;;;29.19;70.43
74474;BME280;62922;-6.168;106.796;2023-02-25T07:32:04;100988.59;;;29.19;70.20
74474;BME280;62922;-6.168;106.796;2023-02-25T07:34:33;100988.28;;;29.20;70.05
74474;BME280;62922;-6.168;106.796;2023-02-25T07:36:59;100980.69;;;29.21;70.17
74474;BME280;62922;-6.168;106.796;2023-02-25T07:39:25;100991.59;;;29.22;70.24
74474;BME280;62922;-6.168;106.796;2023-02-25T07:41:51;100987.94;;;29.22;69.89
74474;BME280;62922;-6.168;106.796;2023-02-25T07:44:17;100989.63;;;29.23;70.19
74474;BME280;62922;-6.168;106.796;2023-02-25T07:46:45;100983.69;;;29.24;69.99
74474;BME280;62922;-6.168;106.796;2023-02-25T07:49:11;100978.88;;;29.25;70.04
74474;BME280;62922;-6.168;106.796;2023-02-25T07:51:37;100979.38;;;29.27;69.83
74474;BME280;62922;-6.168;106.796;2023-02-25T07:54:03;100978.78;;;29.30;69.91
74474;BME280;62922;-6.168;106.796;2023-02-25T07:56:29;100980.75;;;29.29;69.83
74474;BME280;62922;-6.168;106.796;2023-02-25T07:58:55;100975.97;;;29.30;69.73
74474;BME280;62922;-6.168;106.796;2023-02-25T08:03:52;100968.03;;;29.32;69.59
74474;BME280;62922;-6.168;106.796;2023-02-25T08:06:18;100976.97;;;29.34;69.65
74474;BME280;62922;-6.168;106.796;2023-02-25T08:08:45;100968.25;;;29.35;69.72
74474;BME280;62922;-6.168;106.796;2023-02-25T08:11:12;100962.28;;;29.37;69.42
74474;BME280;62922;-6.168;106.796;2023-02-25T08:13:38;100953.22;;;29.40;69.54
74474;BME280;62922;-6.168;106.796;2023-02-25T08:16:04;100950.91;;;29.42;69.85
74474;BME280;62922;-6.168;106.796;2023-02-25T08:18:31;100949.78;;;29.43;69.76
74474;BME280;62922;-6.168;106.796;2023-02-25T08:20:57;100948.63;;;29.44;69.61
74474;BME280;62922;-6.168;106.796;2023-02-25T08:23:23;100953.59;;;29.47;69.73
74474;BME280;62922;-6.168;106.796;2023-02-25T08:25:52;100942.03;;;29.48;69.78
74474;BME280;62922;-6.168;106.796;2023-02-25T08:28:20;100942.84;;;29.49;69.54
74474;BME280;62922;-6.168;106.796;2023-02-25T08:30:47;100955.78;;;29.50;69.50
74474;BME280;62922;-6.168;106.796;2023-02-25T08:33:13;100944.53;;;29.50;69.23
74474;BME280;62922;-6.168;106.796;2023-02-25T08:35:39;100959.09;;;29.52;69.67
74474;BME280;62922;-6.168;106.796;2023-02-25T08:38:04;100947.84;;;29.52;69.53
74474;BME280;62922;-6.168;106.796;2023-02-25T08:40:30;100945.84;;;29.52;69.70
74474;BME280;62922;-6.168;106.796;2023-02-25T08:42:56;100949.00;;;29.51;69.54
74474;BME280;62922;-6.168;106.796;2023-02-25T08:45:24;100940.56;;;29.51;69.47
74474;BME280;62922;-6.168;106.796;2023-02-25T08:47:50;100931.78;;;29.52;69.41
74474;BME280;62922;-6.168;106.796;2023-02-25T08:50:16;100924.19;;;29.53;69.60
74474;BME280;62922;-6.168;106.796;2023-02-25T08:52:42;100923.34;;;29.52;69.53
74474;BME280;62922;-6.168;106.796;2023-02-25T08:55:11;100916.59;;;29.53;69.17
74474;BME280;62922;-6.168;106.796;2023-02-25T08:57:39;100921.06;;;29.54;69.21
74474;BME280;62922;-6.168;106.796;2023-02-25T09:00:06;100928.66;;;29.54;69.23
74474;BME280;62922;-6.168;106.796;2023-02-25T09:02:34;100922.75;;;29.55;69.16
74474;BME280;62922;-6.168;106.796;2023-02-25T09:05:00;100928.38;;;29.55;69.24
74474;BME280;62922;-6.168;106.796;2023-02-25T09:07:26;100927.53;;;29.55;69.24
74474;BME280;62922;-6.168;106.796;2023-02-25T09:09:56;100923.88;;;29.54;69.09
74474;BME280;62922;-6.168;106.796;2023-02-25T09:12:22;100926.34;;;29.56;69.09
74474;BME280;62922;-6.168;106.796;2023-02-25T09:14:48;100920.72;;;29.56;68.94
74474;BME280;62922;-6.168;106.796;2023-02-25T09:17:14;100915.09;;;29.56;69.18
74474;BME280;62922;-6.168;106.796;2023-02-25T09:19:40;100919.59;;;29.57;68.97
74474;BME280;62922;-6.168;106.796;2023-02-25T09:22:06;100928.88;;;29.57;69.11
74474;BME280;62922;-6.168;106.796;2023-02-25T09:24:33;100924.06;;;29.58;69.00
74474;BME280;62922;-6.168;106.796;2023-02-25T09:26:59;100922.09;;;29.58;68.96
74474;BME280;62922;-6.168;106.796;2023-02-25T09:29:28;100926.53;;;29.59;69.05
74474;BME280;62922;-6.168;106.796;2023-02-25T09:31:54;100930.19;;;29.60;68.73
74474;BME280;62922;-6.168;106.796;2023-02-25T09:34:20;100926.53;;;29.59;68.94
74474;BME280;62922;-6.168;106.796;2023-02-25T09:36:45;100930.19;;;29.60;68.65
74474;BME280;62922;-6.168;106.796;2023-02-25T09:39:11;100939.47;;;29.60;68.95
74474;BME280;62922;-6.168;106.796;2023-02-25T09:44:08;100936.66;;;29.60;68.84
74474;BME280;62922;-6.168;106.796;2023-02-25T09:46:37;100940.31;;;29.61;68.51
74474;BME280;62922;-6.168;106.796;2023-02-25T09:49:10;100943.13;;;29.61;68.83
74474;BME280;62922;-6.168;106.796;2023-02-25T09:51:40;100943.94;;;29.61;68.71
74474;BME280;62922;-6.168;106.796;2023-02-25T09:56:34;100938.31;;;29.61;68.63
74474;BME280;62922;-6.168;106.796;2023-02-25T09:59:00;100940.31;;;29.61;68.80
74474;BME280;62922;-6.168;106.796;2023-02-25T10:19:26;100962.47;;;29.62;68.53
74474;BME280;62922;-6.168;106.796;2023-02-25T10:26:37;100982.50;;;29.61;68.39
74474;BME280;62922;-6.168;106.796;2023-02-25T10:29:05;100993.41;;;29.62;68.76
74474;BME280;62922;-6.168;106.796;2023-02-25T10:31:32;100996.56;;;29.61;68.62
74474;BME280;62922;-6.168;106.796;2023-02-25T10:34:03;101007.81;;;29.61;68.61
74474;BME280;62922;-6.168;106.796;2023-02-25T10:36:33;101009.78;;;29.60;68.68
74474;BME280;62922;-6.168;106.796;2023-02-25T10:39:03;101007.28;;;29.59;68.47
74474;BME280;62922;-6.168;106.796;2023-02-25T10:41:32;101017.38;;;29.60;68.47
74474;BME280;62922;-6.168;106.796;2023-02-25T10:44:00;101026.66;;;29.60;68.52
74474;BME280;62922;-6.168;106.796;2023-02-25T10:48:54;101038.22;;;29.59;68.55
74474;BME280;62922;-6.168;106.796;2023-02-25T10:51:21;101039.03;;;29.59;68.38
74474;BME280;62922;-6.168;106.796;2023-02-25T10:56:15;101043.00;;;29.58;68.47
74474;BME280;62922;-6.168;106.796;2023-02-25T10:58:43;101047.78;;;29.58;68.67
74474;BME280;62922;-6.168;106.796;2023-02-25T11:03:42;101051.25;;;29.55;68.66
74474;BME280;62922;-6.168;106.796;2023-02-25T11:06:12;101056.88;;;29.55;68.87
74474;BME280;62922;-6.168;106.796;2023-02-25T11:08:41;101070.94;;;29.55;68.79
74474;BME280;62922;-6.168;106.796;2023-02-25T11:13:35;101070.94;;;29.55;68.89
74474;BME280;62922;-6.168;106.796;2023-02-25T11:16:04;101067.59;;;29.53;68.92
74474;BME280;62922;-6.168;106.796;2023-02-25T11:18:31;101070.41;;;29.53;69.05
74474;BME280;62922;-6.168;106.796;2023-02-25T11:20:59;101065.94;;;29.52;68.96
74474;BME280;62922;-6.168;106.796;2023-02-25T11:25:52;101071.06;;;29.50;68.92
74474;BME280;62922;-6.168;106.796;2023-02-25T11:28:24;101079.50;;;29.50;68.88
74474;BME280;62922;-6.168;106.796;2023-02-25T11:30:51;101085.13;;;29.50;69.13
74474;BME280;62922;-6.168;106.796;2023-02-25T11:33:26;101087.09;;;29.49;69.12
74474;BME280;62922;-6.168;106.796;2023-02-25T11:35:56;101103.13;;;29.49;69.12
74474;BME280;62922;-6.168;106.796;2023-02-25T11:38:26;101111.03;;;29.47;69.36
74474;BME280;62922;-6.168;106.796;2023-02-25T11:40:52;101115.34;;;29.44;69.18
74474;BME280;62922;-6.168;106.796;2023-02-25T11:43:23;101123.75;;;29.44;68.89
74474;BME280;62922;-6.168;106.796;2023-02-25T11:45:52;101120.13;;;29.44;69.09
74474;BME280;62922;-6.168;106.796;2023-02-25T11:48:27;101121.75;;;29.45;69.19
74474;BME280;62922;-6.168;106.796;2023-02-25T12:13:19;101157.91;;;29.38;69.16
74474;BME280;62922;-6.168;106.796;2023-02-25T12:28:10;101163.84;;;29.36;68.85
74474;BME280;62922;-6.168;106.796;2023-02-25T12:43:14;101183.66;;;29.31;69.28
74474;BME280;62922;-6.168;106.796;2023-02-25T13:03:06;101202.59;;;29.26;69.01
74474;BME280;62922;-6.168;106.796;2023-02-25T13:05:43;101210.19;;;29.25;69.22
74474;BME280;62922;-6.168;106.796;2023-02-25T13:31:38;101241.22;;;29.20;69.15
74474;BME280;62922;-6.168;106.796;2023-02-25T13:39:10;101247.16;;;29.19;69.19
74474;BME280;62922;-6.168;106.796;2023-02-25T13:44:11;101244.34;;;29.19;69.05
74474;BME280;62922;-6.168;106.796;2023-02-25T13:52:01;101237.66;;;29.15;69.17
74474;BME280;62922;-6.168;106.796;2023-02-25T14:10:11;101244.72;;;29.12;69.49
74474;BME280;62922;-6.168;106.796;2023-02-25T14:20:36;101243.66;;;29.08;69.74
74474;BME280;62922;-6.168;106.796;2023-02-25T14:35:43;101258.88;;;29.07;69.80
74474;BME280;62922;-6.168;106.796;2023-02-25T14:48:17;101276.03;;;29.06;69.82
74474;BME280;62922;-6.168;106.796;2023-02-25T15:18:48;101283.72;;;29.00;69.90
74474;BME280;62922;-6.168;106.796;2023-02-25T15:24:02;101273.13;;;28.97;69.98
74474;BME280;62922;-6.168;106.796;2023-02-25T15:26:39;101273.13;;;28.97;69.76
74474;BME280;62922;-6.168;106.796;2023-02-25T15:34:38;101266.66;;;28.97;69.81
74474;BME280;62922;-6.168;106.796;2023-02-25T15:39:46;101267.25;;;28.94;70.00
74474;BME280;62922;-6.168;106.796;2023-02-25T15:42:12;101267.25;;;28.94;70.02
74474;BME280;62922;-6.168;106.796;2023-02-25T15:44:39;101267.56;;;28.92;69.65
74474;BME280;62922;-6.168;106.796;2023-02-25T15:49:51;101253.50;;;28.92;69.68
74474;BME280;62922;-6.168;106.796;2023-02-25T15:57:49;101254.69;;;28.91;70.08
74474;BME280;62922;-6.168;106.796;2023-02-25T16:02:51;101274.34;;;28.91;69.92
74474;BME280;62922;-6.168;106.796;2023-02-25T16:05:19;101260.59;;;28.90;70.08
74474;BME280;62922;-6.168;106.796;2023-02-25T16:07:49;101256.94;;;28.89;69.88
74474;BME280;62922;-6.168;106.796;2023-02-25T16:10:18;101264.22;;;28.90;70.05
74474;BME280;62922;-6.168;106.796;2023-02-25T16:12:47;101262.56;;;28.89;70.14
74474;BME280;62922;-6.168;106.796;2023-02-25T16:15:24;101264.53;;;28.89;70.06
74474;BME280;62922;-6.168;106.796;2023-02-25T16:17:50;101270.16;;;28.89;70.01
74474;BME280;62922;-6.168;106.796;2023-02-25T16:20:18;101269.31;;;28.88;69.85
74474;BME280;62922;-6.168;106.796;2023-02-25T16:22:47;101267.34;;;28.89;69.99
74474;BME280;62922;-6.168;106.796;2023-02-25T16:25:22;101274.13;;;28.88;69.79
74474;BME280;62922;-6.168;106.796;2023-02-25T16:27:53;101269.31;;;28.88;70.06
74474;BME280;62922;-6.168;106.796;2023-02-25T16:30:29;101272.13;;;28.88;69.87
74474;BME280;62922;-6.168;106.796;2023-02-25T16:35:27;101273.28;;;28.87;70.20
74474;BME280;62922;-6.168;106.796;2023-02-25T16:38:01;101272.44;;;28.87;69.94
74474;BME280;62922;-6.168;106.796;2023-02-25T16:40:39;101275.25;;;28.87;70.11
74474;BME280;62922;-6.168;106.796;2023-02-25T16:43:10;101261.53;;;28.85;70.28
74474;BME280;62922;-6.168;106.796;2023-02-25T16:45:40;101257.88;;;28.85;70.11
74474;BME280;62922;-6.168;106.796;2023-02-25T16:48:17;101263.47;;;28.85;70.34
74474;BME280;62922;-6.168;106.796;2023-02-25T16:50:49;101259.88;;;28.84;70.28
74474;BME280;62922;-6.168;106.796;2023-02-25T16:53:16;101251.44;;;28.84;70.37
74474;BME280;62922;-6.168;106.796;2023-02-25T16:55:46;101250.59;;;28.84;70.22
74474;BME280;62922;-6.168;106.796;2023-02-25T17:00:58;101262.69;;;28.84;70.27